.
WxDataArchive / Data Records for 2014-03-09
2014-03-08 March 2014 2014-03-10

Data Records for Sunday, 09 March 2014

Time	Temp	Chill	HIndex	Humid	Dewpt	 Wind 	HiWind	WindDir	Rain 	Barom
-----	----	-----	------	-----	-----	------	------	-------	-----	-----
00:00	27.0	27.0	27.0	78	21.1	1	3	292	0.00	30.215 
00:05	26.7	26.7	26.7	78	20.8	0	3	292	0.00	30.215 
00:10	26.6	26.6	26.6	78	20.7	1	3	292	0.00	30.215 
00:15	26.4	26.4	26.4	78	20.5	1	4	270	0.00	30.217 
00:20	26.3	26.3	26.3	78	20.4	1	4	315	0.00	30.217 
00:25	26.0	26.0	26.0	78	20.1	0	3	315	0.00	30.217 
00:30	25.8	25.8	25.8	78	19.9	1	5	338	0.00	30.220 
00:35	25.6	25.6	25.6	78	19.7	1	6	315	0.00	30.220 
00:40	25.4	25.4	25.4	78	19.5	1	3	270	0.00	30.220 
00:45	25.1	25.1	25.1	78	19.2	0	2	292	0.00	30.219 
00:50	25.0	25.0	25.0	79	19.4	1	4	338	0.00	30.219 
00:55	24.7	24.7	24.7	79	19.1	1	4	338	0.00	30.219 
01:00	24.5	24.5	24.5	79	18.9	1	4	0	0.00	30.219 
01:05	24.4	24.4	24.4	79	18.8	1	3	315	0.00	30.219 
01:10	24.1	24.1	24.1	80	18.8	0	3	338	0.00	30.219 
01:15	23.9	23.9	23.9	80	18.6	0	4	0	0.00	30.222 
01:20	23.8	23.8	23.8	80	18.5	0	2	0	0.00	30.222 
01:25	23.6	23.6	23.6	80	18.4	1	4	292	0.00	30.222 
01:30	23.5	23.5	23.5	80	18.3	0	2	338	0.00	30.223 
01:35	23.3	23.3	23.3	79	17.8	1	4	338	0.00	30.223 
01:40	23.2	23.2	23.2	79	17.7	0	2	338	0.00	30.223 
01:45	23.0	23.0	23.0	79	17.5	0	2	338	0.00	30.225 
01:50	22.9	22.9	22.9	79	17.4	0	1	338	0.00	30.225 
01:55	22.5	22.5	22.5	79	17.0	0	0	---	0.00	30.225 
03:00	22.4	22.4	22.4	79	16.9	0	1	338	0.00	30.224 
03:05	22.2	22.2	22.2	79	16.7	0	1	338	0.00	30.224 
03:10	22.1	22.1	22.1	79	16.6	0	2	338	0.00	30.224 
03:15	21.9	21.9	21.9	79	16.4	0	2	338	0.00	30.231 
03:20	21.9	21.9	21.9	79	16.4	0	2	338	0.00	30.231 
03:25	21.8	21.8	21.8	78	16.0	0	1	338	0.00	30.231 
03:30	21.6	21.6	21.6	78	15.8	0	1	338	0.00	30.236 
03:35	21.4	21.4	21.4	78	15.6	0	2	338	0.00	30.236 
03:40	21.3	21.3	21.3	78	15.5	0	1	338	0.00	30.236 
03:45	21.1	21.1	21.1	78	15.3	0	1	338	0.00	30.239 
03:50	21.0	21.0	21.0	79	15.5	0	0	---	0.00	30.239 
03:55	20.8	20.8	20.8	79	15.3	0	0	---	0.00	30.239 
04:00	20.6	20.6	20.6	79	15.1	0	1	338	0.00	30.230 
04:05	20.5	20.5	20.5	79	15.0	0	1	338	0.00	30.230 
04:10	20.5	20.5	20.5	80	15.3	0	0	---	0.00	30.230 
04:15	20.3	20.3	20.3	80	15.1	0	1	338	0.00	30.231 
04:20	20.0	20.0	20.0	80	14.8	0	0	---	0.00	30.231 
04:25	19.9	19.9	19.9	80	14.7	0	0	---	0.00	30.231 
04:30	19.7	19.7	19.7	80	14.6	0	0	---	0.00	30.225 
04:35	19.4	19.4	19.4	80	14.3	0	0	---	0.00	30.225 
04:40	19.2	19.2	19.2	81	14.3	0	0	---	0.00	30.225 
04:45	19.2	19.2	19.2	81	14.3	0	1	338	0.00	30.229 
04:50	19.2	19.2	19.2	82	14.6	0	1	338	0.00	30.229 
04:55	19.1	19.1	19.1	82	14.5	0	1	338	0.00	30.229 
05:00	19.1	19.1	19.1	82	14.5	0	1	338	0.00	30.238 
05:05	18.9	18.9	18.9	83	14.6	0	1	338	0.00	30.238 
05:10	18.9	18.9	18.9	83	14.6	0	1	338	0.00	30.238 
05:15	18.8	18.8	18.8	83	14.5	0	0	---	0.00	30.234 
05:20	18.6	18.6	18.6	83	14.3	0	0	---	0.00	30.234 
05:25	18.6	18.6	18.6	84	14.6	0	0	---	0.00	30.234 
05:30	18.4	18.4	18.4	84	14.4	0	0	---	0.00	30.236 
05:35	18.3	18.3	18.3	84	14.3	0	0	---	0.00	30.236 
05:40	18.1	18.1	18.1	84	14.1	0	0	---	0.00	30.236 
05:45	18.0	18.0	18.0	84	14.0	0	0	---	0.00	30.240 
05:50	17.8	17.8	17.8	84	13.8	0	0	---	0.00	30.240 
05:55	17.7	17.7	17.7	84	13.7	0	0	---	0.00	30.240 
06:00	17.5	17.5	17.5	84	13.5	0	0	---	0.00	30.242 
06:05	17.3	17.3	17.3	85	13.6	0	0	---	0.00	30.242 
06:10	17.2	17.2	17.2	85	13.5	0	0	---	0.00	30.242 
06:15	17.0	17.0	17.0	85	13.3	0	0	---	0.00	30.245 
06:20	16.9	16.9	16.9	85	13.2	0	0	---	0.00	30.245 
06:25	16.9	16.9	16.9	85	13.2	0	0	---	0.00	30.245 
06:30	16.7	16.7	16.7	86	13.3	0	0	---	0.00	30.245 
06:35	16.7	16.7	16.7	86	13.3	0	0	---	0.00	30.245 
06:40	16.7	16.7	16.7	86	13.3	0	0	---	0.00	30.245 
06:45	16.5	16.5	16.5	86	13.1	0	0	---	0.00	30.246 
06:50	16.5	16.5	16.5	86	13.1	0	0	---	0.00	30.246 
06:55	16.4	16.4	16.4	86	13.0	0	0	---	0.00	30.246 
07:00	16.1	16.1	16.1	86	12.7	0	0	---	0.00	30.251 
07:05	16.1	16.1	16.1	86	12.7	0	0	---	0.00	30.251 
07:10	16.1	16.1	16.1	87	12.9	0	0	---	0.00	30.251 
07:15	16.2	16.2	16.2	87	13.0	0	0	---	0.00	30.261 
07:20	16.2	16.2	16.2	87	13.0	0	0	---	0.00	30.261 
07:25	16.2	16.2	16.2	87	13.0	0	0	---	0.00	30.261 
07:30	16.2	16.2	16.2	87	13.0	0	0	---	0.00	30.261 
07:35	16.1	16.1	16.1	87	12.9	0	0	---	0.00	30.261 
07:40	16.1	16.1	16.1	87	12.9	0	0	---	0.00	30.261 
07:45	15.9	15.9	15.9	87	12.7	0	0	---	0.00	30.269 
07:50	15.9	15.9	15.9	87	12.7	0	0	---	0.00	30.269 
07:55	15.9	15.9	15.9	87	12.7	0	0	---	0.00	30.269 
08:00	16.1	16.1	16.1	88	13.2	0	0	---	0.00	30.271 
08:05	16.2	16.2	16.2	88	13.3	0	0	---	0.00	30.271 
08:10	16.4	16.4	16.4	88	13.5	0	1	338	0.00	30.271 
08:15	16.5	16.5	16.5	88	13.6	0	0	---	0.00	30.275 
08:20	16.5	16.5	16.5	88	13.6	0	1	338	0.00	30.275 
08:25	16.7	16.7	16.7	88	13.8	0	0	---	0.00	30.275 
08:30	16.9	16.9	16.9	88	14.0	0	0	---	0.00	30.281 
08:35	17.2	17.2	17.2	88	14.3	0	1	338	0.00	30.281 
08:40	17.5	17.5	17.5	88	14.6	0	0	---	0.00	30.281 
08:45	17.8	17.8	17.8	88	14.9	0	1	338	0.00	30.288 
08:50	18.1	18.1	18.1	88	15.2	0	1	338	0.00	30.288 
08:55	18.4	18.4	18.4	88	15.5	0	1	338	0.00	30.288 
09:00	18.6	18.6	18.6	88	15.6	0	1	338	0.00	30.292 
09:05	18.9	18.9	18.9	88	15.9	0	1	338	0.00	30.292 
09:10	19.2	19.2	19.2	88	16.2	0	1	338	0.00	30.292 
09:15	19.7	19.7	19.7	88	16.7	0	1	338	0.00	30.290 
09:20	20.0	20.0	20.0	88	17.0	0	1	338	0.00	30.290 
09:25	20.3	20.3	20.3	88	17.3	0	0	---	0.00	30.290 
09:30	20.8	20.8	20.8	88	17.8	0	1	338	0.00	30.292 
09:35	21.1	21.1	21.1	87	17.8	0	1	338	0.00	30.292 
09:40	21.4	21.4	21.4	87	18.1	0	1	338	0.00	30.292 
09:45	21.6	21.6	21.6	87	18.3	0	1	338	0.00	30.286 
09:50	21.9	21.9	21.9	86	18.4	0	1	338	0.00	30.286 
09:55	22.2	22.2	22.2	86	18.7	0	1	338	0.00	30.286 
10:00	22.7	22.7	22.7	86	19.2	0	1	338	0.00	30.285 
10:05	23.2	23.2	23.2	86	19.6	0	1	338	0.00	30.285 
10:10	23.6	23.6	23.6	85	19.8	0	2	338	0.00	30.285 
10:15	23.9	23.9	23.9	84	19.8	0	2	338	0.00	30.285 
10:20	24.4	24.4	24.4	84	20.3	1	2	338	0.00	30.285 
10:25	24.8	24.8	24.8	83	20.4	0	2	338	0.00	30.285 
10:30	25.1	25.1	25.1	82	20.4	1	2	338	0.00	30.283 
10:35	25.6	25.6	25.6	82	20.9	0	2	338	0.00	30.283 
10:40	26.1	26.1	26.1	81	21.1	0	2	338	0.00	30.283 
10:45	26.6	26.6	26.6	79	21.0	0	2	338	0.00	30.269 
10:50	26.7	26.7	26.7	77	20.5	1	3	338	0.00	30.269 
10:55	27.2	27.2	27.2	77	21.0	0	2	338	0.00	30.269 
11:00	27.6	27.6	27.6	76	21.0	0	2	338	0.00	30.261 
11:05	27.8	27.8	27.8	74	20.6	1	3	338	0.00	30.261 
11:10	28.1	28.1	28.1	73	20.6	1	2	315	0.00	30.261 
11:15	28.7	28.7	28.7	73	21.2	1	2	315	0.00	30.255 
11:20	29.4	29.4	29.4	71	21.2	0	2	315	0.00	30.255 
11:25	30.0	30.0	30.0	70	21.4	0	1	315	0.00	30.255 
11:30	30.6	30.6	30.6	68	21.3	0	2	315	0.00	30.248 
11:35	31.0	31.0	31.0	65	20.6	1	2	315	0.00	30.248 
11:40	31.0	31.0	31.0	64	20.3	1	2	315	0.00	30.248 
11:45	31.3	31.3	31.3	65	20.9	0	2	315	0.00	30.241 
11:50	32.1	32.1	32.1	64	21.3	0	2	315	0.00	30.241 
11:55	32.5	32.5	32.5	63	21.3	1	3	315	0.00	30.241 
12:00	32.5	32.5	32.5	62	20.9	1	3	292	0.00	30.232 
12:05	32.4	32.4	32.4	60	20.1	1	4	248	0.00	30.232 
12:10	32.5	32.5	32.5	60	20.2	1	3	270	0.00	30.232 
12:15	32.8	32.8	32.8	59	20.1	1	3	270	0.00	30.225 
12:20	32.7	32.7	32.7	59	20.0	2	5	248	0.00	30.225 
12:25	32.8	32.8	32.8	60	20.5	1	4	248	0.00	30.225 
12:30	33.1	33.1	33.1	60	20.7	1	4	248	0.00	30.218 
12:35	33.1	33.1	33.1	59	20.4	1	4	248	0.00	30.218 
12:40	32.9	32.9	32.9	59	20.2	1	5	248	0.00	30.218 
12:45	33.1	33.1	33.1	59	20.4	1	4	248	0.00	30.207 
12:50	33.4	33.4	33.4	59	20.6	1	3	248	0.00	30.207 
12:55	33.7	33.7	33.7	59	20.9	1	4	248	0.00	30.207 
13:00	33.7	33.7	33.7	58	20.5	1	3	248	0.00	30.214 
13:05	33.7	33.7	33.7	58	20.5	1	4	248	0.00	30.214 
13:10	34.0	34.0	34.0	58	20.8	1	4	248	0.00	30.214 
13:15	34.1	34.1	34.1	57	20.5	2	5	248	0.00	30.211 
13:20	34.3	34.3	34.3	58	21.1	1	4	248	0.00	30.211 
13:25	34.3	34.3	34.3	56	20.3	1	5	248	0.00	30.211 
13:30	34.1	34.1	34.1	56	20.1	2	6	248	0.00	30.206 
13:35	34.3	34.3	34.3	58	21.1	1	3	248	0.00	30.206 
13:40	34.9	34.9	34.9	56	20.8	1	3	248	0.00	30.206 
13:45	35.0	35.0	35.0	55	20.5	1	5	248	0.00	30.196 
13:50	35.2	35.2	35.2	56	21.1	1	4	248	0.00	30.196 
13:55	35.3	35.3	35.3	56	21.2	1	5	270	0.00	30.196 
14:00	35.5	35.5	35.5	57	21.8	1	3	270	0.00	30.191 
14:05	35.8	35.8	35.8	55	21.2	1	5	270	0.00	30.191 
14:10	35.9	35.9	35.9	55	21.3	2	5	270	0.00	30.191 
14:15	35.9	35.9	35.9	54	20.9	1	5	248	0.00	30.177 
14:20	36.0	36.0	36.0	54	21.0	1	3	248	0.00	30.177 
14:25	36.5	36.5	36.5	54	21.5	1	3	248	0.00	30.177 
14:30	36.8	36.8	36.8	53	21.3	2	5	248	0.00	30.172 
14:35	36.6	36.6	36.6	54	21.5	2	7	248	0.00	30.172 
14:40	36.8	36.8	36.8	54	21.7	2	5	248	0.00	30.172 
14:45	37.3	37.3	37.3	55	22.6	1	3	248	0.00	30.162 
14:50	37.8	37.8	37.8	51	21.3	2	6	248	0.00	30.162 
14:55	37.9	37.9	37.9	51	21.4	1	4	270	0.00	30.162 
15:00	37.6	37.6	37.6	51	21.1	2	6	248	0.00	30.144 
15:05	37.6	37.6	37.6	53	22.0	1	5	270	0.00	30.144 
15:10	37.9	37.9	37.9	52	21.9	1	4	270	0.00	30.144 
15:15	37.9	37.9	37.9	52	21.9	1	3	248	0.00	30.135 
15:20	37.8	37.8	37.8	52	21.8	1	3	248	0.00	30.135 
15:25	37.3	37.3	37.3	53	21.8	1	5	248	0.00	30.135 
15:30	37.3	37.3	37.3	54	22.2	1	5	248	0.00	30.128 
15:35	37.6	37.6	37.6	53	22.0	1	4	248	0.00	30.128 
15:40	37.8	37.8	37.8	53	22.2	1	5	248	0.00	30.128 
15:45	37.9	37.9	37.9	53	22.3	2	5	248	0.00	30.114 
15:50	37.8	37.8	37.8	54	22.7	2	5	248	0.00	30.114 
15:55	37.9	37.9	37.9	54	22.8	1	4	248	0.00	30.114 
16:00	37.9	37.9	37.9	53	22.3	2	5	248	0.00	30.109 
16:05	37.8	37.8	37.8	54	22.7	2	5	248	0.00	30.109 
16:10	37.9	37.9	37.9	55	23.2	1	3	248	0.00	30.109 
16:15	38.0	38.0	38.0	54	22.9	1	3	270	0.00	30.112 
16:20	38.0	38.0	38.0	54	22.9	1	4	270	0.00	30.112 
16:25	37.8	37.8	37.8	55	23.1	2	6	248	0.00	30.112 
16:30	37.6	37.6	37.6	56	23.3	2	5	248	0.00	30.109 
16:35	37.5	37.5	37.5	56	23.2	2	6	248	0.00	30.109 
16:40	37.5	37.5	37.5	56	23.2	2	5	248	0.00	30.109 
16:45	37.6	37.6	37.6	56	23.3	1	6	270	0.00	30.095 
16:50	37.8	37.8	37.8	56	23.5	1	4	248	0.00	30.095 
16:55	37.9	37.9	37.9	56	23.6	2	5	248	0.00	30.095 
17:00	37.9	37.9	37.9	56	23.6	1	5	248	0.00	30.093 
17:05	38.0	38.0	38.0	57	24.1	1	4	248	0.00	30.093 
17:10	38.2	38.2	38.2	56	23.9	1	6	248	0.00	30.093 
17:15	38.2	38.2	38.2	56	23.9	2	6	248	0.00	30.081 
17:20	38.2	38.2	38.2	56	23.9	1	3	270	0.00	30.081 
17:25	38.5	38.5	38.5	57	24.6	1	4	225	0.00	30.081 
17:30	38.8	38.8	38.8	57	24.9	0	2	225	0.00	30.089 
17:35	38.6	38.6	38.6	55	23.8	2	5	248	0.00	30.089 
17:40	38.3	38.3	38.3	57	24.4	1	5	248	0.00	30.089 
17:45	38.5	38.5	38.5	57	24.6	1	4	248	0.00	30.083 
17:50	38.5	38.5	38.5	57	24.6	0	2	248	0.00	30.083 
17:55	38.2	38.2	38.2	57	24.3	1	4	248	0.00	30.083 
18:00	37.9	37.9	37.9	57	24.0	2	5	248	0.00	30.067 
18:05	37.8	37.8	37.8	58	24.4	0	4	248	0.00	30.067 
18:10	37.6	37.6	37.6	58	24.2	1	3	248	0.00	30.067 
18:15	37.6	37.6	37.6	59	24.6	1	3	248	0.00	30.061 
18:20	37.5	37.5	37.5	59	24.5	1	3	248	0.00	30.061 
18:25	37.5	37.5	37.5	60	24.9	0	3	248	0.00	30.061 
18:30	37.3	37.3	37.3	60	24.7	1	4	248	0.00	30.051 
18:35	37.2	37.2	37.2	60	24.6	1	3	248	0.00	30.051 
18:40	37.2	37.2	37.2	61	25.0	1	4	248	0.00	30.051 
18:45	37.2	37.2	37.2	61	25.0	0	3	248	0.00	30.046 
18:50	37.2	37.2	37.2	62	25.4	0	2	248	0.00	30.046 
18:55	37.0	37.0	37.0	63	25.6	0	1	248	0.00	30.046 
19:00	36.9	36.9	36.9	63	25.5	0	2	248	0.00	30.035 
19:05	36.9	36.9	36.9	64	25.9	0	0	---	0.00	30.035 
19:10	36.8	36.8	36.8	64	25.8	0	1	248	0.00	30.035 
19:15	36.8	36.8	36.8	64	25.8	1	5	248	0.00	30.033 
19:20	36.6	36.6	36.6	65	26.0	0	4	90	0.00	30.033 
19:25	36.6	36.6	36.6	65	26.0	0	2	90	0.00	30.033 
19:30	36.5	36.5	36.5	65	25.9	0	2	90	0.00	30.025 
19:35	36.3	36.3	36.3	66	26.0	0	3	90	0.00	30.025 
19:40	36.3	36.3	36.3	67	26.4	0	2	270	0.00	30.025 
19:45	36.2	36.2	36.2	68	26.7	0	2	270	0.00	30.018 
19:50	36.0	36.0	36.0	68	26.5	0	1	270	0.00	30.018 
19:55	36.0	36.0	36.0	69	26.8	0	1	270	0.00	30.018 
20:00	36.0	36.0	36.0	69	26.8	0	2	270	0.00	30.004 
20:05	36.0	36.0	36.0	69	26.8	0	2	270	0.00	30.004 
20:10	36.0	36.0	36.0	69	26.8	0	3	270	0.00	30.004 
20:15	36.2	36.2	36.2	69	27.0	1	4	270	0.00	30.000 
20:20	36.2	36.2	36.2	69	27.0	0	2	270	0.00	30.000 
20:25	36.3	36.3	36.3	69	27.1	1	5	248	0.00	30.000 
20:30	36.5	36.5	36.5	68	27.0	1	3	248	0.00	29.998 
20:35	36.5	36.5	36.5	68	27.0	1	4	248	0.00	29.998 
20:40	36.6	36.6	36.6	68	27.1	0	2	248	0.00	29.998 
20:45	36.6	36.6	36.6	68	27.1	0	3	248	0.00	30.007 
20:50	36.5	36.5	36.5	68	27.0	0	2	248	0.00	30.007 
20:55	36.5	36.5	36.5	69	27.3	0	2	248	0.00	30.007 
21:00	36.5	36.5	36.5	69	27.3	1	3	248	0.00	29.998 
21:05	36.5	36.5	36.5	69	27.3	0	3	248	0.00	29.998 
21:10	36.5	36.5	36.5	69	27.3	0	3	248	0.00	29.998 
21:15	36.5	36.5	36.5	69	27.3	0	1	248	0.00	29.993 
21:20	36.3	36.3	36.3	69	27.1	0	4	248	0.00	29.993 
21:25	36.3	36.3	36.3	70	27.5	0	3	248	0.00	29.993 
21:30	36.2	36.2	36.2	70	27.4	0	2	248	0.00	29.985 
21:35	36.2	36.2	36.2	71	27.7	0	1	248	0.00	29.985 
21:40	36.2	36.2	36.2	71	27.7	0	2	248	0.00	29.985 
21:45	36.0	36.0	36.0	71	27.5	0	2	248	0.00	29.980 
21:50	36.0	36.0	36.0	72	27.9	0	1	248	0.00	29.980 
21:55	36.0	36.0	36.0	72	27.9	0	2	248	0.00	29.980 
22:00	36.0	36.0	36.0	72	27.9	0	3	248	0.00	29.973 
22:05	36.0	36.0	36.0	72	27.9	0	2	248	0.00	29.973 
22:10	36.0	36.0	36.0	72	27.9	0	2	248	0.00	29.973 
22:15	36.0	36.0	36.0	73	28.2	0	2	248	0.00	29.961 
22:20	36.0	36.0	36.0	72	27.9	0	2	248	0.00	29.961 
22:25	35.9	35.9	35.9	73	28.1	0	2	248	0.00	29.961 
22:30	35.9	35.9	35.9	73	28.1	0	4	248	0.00	29.958 
22:35	35.9	35.9	35.9	73	28.1	0	2	248	0.00	29.958 
22:40	35.9	35.9	35.9	72	27.8	1	3	248	0.00	29.958 
22:45	35.9	35.9	35.9	73	28.1	0	3	248	0.00	29.947 
22:50	35.9	35.9	35.9	73	28.1	0	3	248	0.00	29.947 
22:55	35.9	35.9	35.9	72	27.8	0	4	248	0.00	29.947 
23:00	36.0	36.0	36.0	72	27.9	1	5	248	0.00	29.942 
23:05	36.2	36.2	36.2	72	28.1	0	2	248	0.00	29.942 
23:10	36.3	36.3	36.3	72	28.2	0	2	248	0.00	29.942 
23:15	36.5	36.5	36.5	71	28.0	1	4	248	0.00	29.931 
23:20	36.6	36.6	36.6	71	28.1	1	3	248	0.00	29.931 
23:25	36.6	36.6	36.6	71	28.1	1	3	248	0.00	29.931 
23:30	36.8	36.8	36.8	71	28.3	1	4	248	0.00	29.921 
23:35	36.8	36.8	36.8	70	27.9	1	4	248	0.00	29.921 
23:40	36.9	36.9	36.9	70	28.0	1	6	248	0.00	29.921 
23:45	36.9	36.9	36.9	70	28.0	1	6	248	0.00	29.920 
23:50	36.8	36.8	36.8	70	27.9	1	4	248	0.00	29.920 
23:55	36.8	36.8	36.8	71	28.3	1	5	248	0.00	29.920 
20140310 00:00	36.8	36.8	36.8	71	28.3	1	6	248	0.00	29.908 
20140310 00:05	36.8	36.8	36.8	71	28.3	1	4	248	0.00	29.908 
20140310 00:10	36.8	36.8	36.8	71	28.3	1	5	248	0.00	29.908 
20140310 00:15	36.8	36.8	36.8	71	28.3	1	3	248	0.00	29.911 
20140310 00:20	36.9	36.9	36.9	71	28.4	1	6	248	0.00	29.911 
20140310 00:25	36.9	36.9	36.9	70	28.0	1	4	248	0.00	29.911 
20140310 00:30	36.9	36.9	36.9	70	28.0	1	3	248	0.00	29.907 
20140310 00:35	36.9	36.9	36.9	70	28.0	1	5	248	0.00	29.907 
20140310 00:40	36.9	36.9	36.9	70	28.0	1	5	248	0.00	29.907 
20140310 00:45	37.0	37.0	37.0	70	28.1	1	4	248	0.00	29.908 
20140310 00:50	37.0	37.0	37.0	70	28.1	1	5	248	0.00	29.908 
20140310 00:55	36.9	36.9	36.9	71	28.4	1	9	248	0.00	29.908 

CoCoRaHS
IN-AL-39
A2 Web Hosting
Creative Commons License
GoDaddy
search engine by freefind advanced

loaded 2018-11-22 05:39:43 • last modified 2010-11-18 10:43:29
Privacy PolicyDisclaimer
• wx.awcolley.com is powered by PmWiki v.2002016 •
• all content (unless otherwise noted) © 2018 A W Colley